sensor_id;sensor_type;location;lat;lon;timestamp;P1;durP1;ratioP1;P2;durP2;ratioP2
85529;SDS011;75951;48.230;16.346;2024-03-02T00:01:12;68.3;;;71.3;;
85529;SDS011;75951;48.230;16.346;2024-03-02T00:06:12;68.9;;;71.1;;
85529;SDS011;75951;48.230;16.346;2024-03-02T00:11:12;68.1;;;70.4;;
85529;SDS011;75951;48.230;16.346;2024-03-02T00:16:12;68.9;;;71.6;;
85529;SDS011;75951;48.230;16.346;2024-03-02T00:21:12;66.3;;;69.2;;
85529;SDS011;75951;48.230;16.346;2024-03-02T00:26:12;65.3;;;67.7;;
85529;SDS011;75951;48.230;16.346;2024-03-02T00:31:12;65.5;;;67.9;;
85529;SDS011;75951;48.230;16.346;2024-03-02T00:36:12;67.5;;;69.8;;
85529;SDS011;75951;48.230;16.346;2024-03-02T00:41:15;66.9;;;69.5;;
85529;SDS011;75951;48.230;16.346;2024-03-02T00:46:12;67.8;;;70.2;;
85529;SDS011;75951;48.230;16.346;2024-03-02T00:51:12;71.3;;;73.6;;
85529;SDS011;75951;48.230;16.346;2024-03-02T00:56:12;69.3;;;71.0;;
85529;SDS011;75951;48.230;16.346;2024-03-02T01:01:12;70.5;;;72.5;;
85529;SDS011;75951;48.230;16.346;2024-03-02T01:06:12;70.8;;;73.1;;
85529;SDS011;75951;48.230;16.346;2024-03-02T01:11:12;68.5;;;70.8;;
85529;SDS011;75951;48.230;16.346;2024-03-02T01:16:12;71.1;;;73.0;;
85529;SDS011;75951;48.230;16.346;2024-03-02T01:21:12;69.6;;;71.8;;
85529;SDS011;75951;48.230;16.346;2024-03-02T01:26:12;68.6;;;70.9;;
85529;SDS011;75951;48.230;16.346;2024-03-02T01:31:12;68.7;;;71.4;;
85529;SDS011;75951;48.230;16.346;2024-03-02T01:36:12;70.0;;;72.4;;
85529;SDS011;75951;48.230;16.346;2024-03-02T01:41:12;70.2;;;72.4;;
85529;SDS011;75951;48.230;16.346;2024-03-02T01:46:12;69.8;;;72.6;;
85529;SDS011;75951;48.230;16.346;2024-03-02T01:51:12;70.7;;;73.2;;
85529;SDS011;75951;48.230;16.346;2024-03-02T01:56:12;70.9;;;73.8;;
85529;SDS011;75951;48.230;16.346;2024-03-02T02:01:12;67.4;;;69.0;;
85529;SDS011;75951;48.230;16.346;2024-03-02T02:06:12;71.1;;;73.7;;
85529;SDS011;75951;48.230;16.346;2024-03-02T02:11:12;71.6;;;73.9;;
85529;SDS011;75951;48.230;16.346;2024-03-02T02:16:12;71.6;;;73.8;;
85529;SDS011;75951;48.230;16.346;2024-03-02T02:21:12;70.8;;;74.2;;
85529;SDS011;75951;48.230;16.346;2024-03-02T02:26:12;70.2;;;72.8;;
85529;SDS011;75951;48.230;16.346;2024-03-02T02:31:12;69.7;;;72.0;;
85529;SDS011;75951;48.230;16.346;2024-03-02T02:36:12;71.3;;;73.8;;
85529;SDS011;75951;48.230;16.346;2024-03-02T02:41:12;71.3;;;73.7;;
85529;SDS011;75951;48.230;16.346;2024-03-02T02:46:12;70.9;;;73.5;;
85529;SDS011;75951;48.230;16.346;2024-03-02T02:51:12;71.7;;;74.1;;
85529;SDS011;75951;48.230;16.346;2024-03-02T02:56:12;67.5;;;70.0;;
85529;SDS011;75951;48.230;16.346;2024-03-02T03:01:12;69.0;;;71.4;;
85529;SDS011;75951;48.230;16.346;2024-03-02T03:06:12;67.3;;;70.4;;
85529;SDS011;75951;48.230;16.346;2024-03-02T03:11:12;68.5;;;70.8;;
85529;SDS011;75951;48.230;16.346;2024-03-02T03:16:12;66.9;;;69.1;;
85529;SDS011;75951;48.230;16.346;2024-03-02T03:21:12;68.3;;;70.6;;
85529;SDS011;75951;48.230;16.346;2024-03-02T03:26:12;66.5;;;69.9;;
85529;SDS011;75951;48.230;16.346;2024-03-02T03:31:12;70.3;;;73.1;;
85529;SDS011;75951;48.230;16.346;2024-03-02T03:36:12;67.2;;;69.3;;
85529;SDS011;75951;48.230;16.346;2024-03-02T03:41:12;69.6;;;72.5;;
85529;SDS011;75951;48.230;16.346;2024-03-02T03:46:12;67.6;;;70.0;;
85529;SDS011;75951;48.230;16.346;2024-03-02T03:51:12;68.6;;;71.3;;
85529;SDS011;75951;48.230;16.346;2024-03-02T03:56:12;68.1;;;70.3;;
85529;SDS011;75951;48.230;16.346;2024-03-02T04:01:12;68.4;;;70.6;;
85529;SDS011;75951;48.230;16.346;2024-03-02T04:06:12;67.0;;;69.5;;
85529;SDS011;75951;48.230;16.346;2024-03-02T04:11:12;64.3;;;66.8;;
85529;SDS011;75951;48.230;16.346;2024-03-02T04:16:12;68.9;;;71.9;;
85529;SDS011;75951;48.230;16.346;2024-03-02T04:21:12;68.7;;;71.0;;
85529;SDS011;75951;48.230;16.346;2024-03-02T04:26:12;67.8;;;69.8;;
85529;SDS011;75951;48.230;16.346;2024-03-02T04:31:12;68.5;;;71.4;;
85529;SDS011;75951;48.230;16.346;2024-03-02T04:36:12;65.6;;;68.4;;
85529;SDS011;75951;48.230;16.346;2024-03-02T04:41:12;68.9;;;71.0;;
85529;SDS011;75951;48.230;16.346;2024-03-02T04:46:12;67.5;;;70.2;;
85529;SDS011;75951;48.230;16.346;2024-03-02T04:51:12;66.3;;;68.5;;
85529;SDS011;75951;48.230;16.346;2024-03-02T04:56:12;67.3;;;69.6;;
85529;SDS011;75951;48.230;16.346;2024-03-02T05:01:12;96.7;;;100.2;;
85529;SDS011;75951;48.230;16.346;2024-03-02T05:06:12;69.5;;;71.6;;
85529;SDS011;75951;48.230;16.346;2024-03-02T05:11:12;69.7;;;72.3;;
85529;SDS011;75951;48.230;16.346;2024-03-02T05:16:12;68.9;;;71.0;;
85529;SDS011;75951;48.230;16.346;2024-03-02T05:21:12;65.9;;;68.0;;
85529;SDS011;75951;48.230;16.346;2024-03-02T05:26:12;68.6;;;71.1;;
85529;SDS011;75951;48.230;16.346;2024-03-02T05:31:12;68.4;;;70.3;;
85529;SDS011;75951;48.230;16.346;2024-03-02T05:36:12;68.9;;;71.3;;
85529;SDS011;75951;48.230;16.346;2024-03-02T05:41:12;67.6;;;69.8;;
85529;SDS011;75951;48.230;16.346;2024-03-02T05:46:12;67.2;;;69.2;;
85529;SDS011;75951;48.230;16.346;2024-03-02T05:51:12;66.1;;;68.3;;
85529;SDS011;75951;48.230;16.346;2024-03-02T05:56:12;65.3;;;66.9;;
85529;SDS011;75951;48.230;16.346;2024-03-02T06:01:12;64.7;;;66.2;;
85529;SDS011;75951;48.230;16.346;2024-03-02T06:06:12;61.7;;;63.9;;
85529;SDS011;75951;48.230;16.346;2024-03-02T06:11:12;57.3;;;59.3;;
85529;SDS011;75951;48.230;16.346;2024-03-02T06:16:12;51.0;;;52.4;;
85529;SDS011;75951;48.230;16.346;2024-03-02T06:21:11;51.6;;;53.5;;
85529;SDS011;75951;48.230;16.346;2024-03-02T06:26:12;47.2;;;48.6;;
85529;SDS011;75951;48.230;16.346;2024-03-02T06:31:12;46.8;;;48.7;;
85529;SDS011;75951;48.230;16.346;2024-03-02T06:36:12;49.4;;;51.2;;
85529;SDS011;75951;48.230;16.346;2024-03-02T06:41:11;48.3;;;50.4;;
85529;SDS011;75951;48.230;16.346;2024-03-02T06:46:12;48.2;;;50.3;;
85529;SDS011;75951;48.230;16.346;2024-03-02T06:51:12;50.4;;;52.2;;
85529;SDS011;75951;48.230;16.346;2024-03-02T06:56:11;52.7;;;54.5;;
85529;SDS011;75951;48.230;16.346;2024-03-02T07:01:12;52.2;;;54.3;;
85529;SDS011;75951;48.230;16.346;2024-03-02T07:06:12;52.4;;;53.9;;
85529;SDS011;75951;48.230;16.346;2024-03-02T07:11:12;51.7;;;53.1;;
85529;SDS011;75951;48.230;16.346;2024-03-02T07:16:12;53.8;;;56.0;;
85529;SDS011;75951;48.230;16.346;2024-03-02T07:21:11;50.3;;;52.2;;
85529;SDS011;75951;48.230;16.346;2024-03-02T07:26:12;49.0;;;51.0;;
85529;SDS011;75951;48.230;16.346;2024-03-02T07:31:12;50.3;;;52.0;;
85529;SDS011;75951;48.230;16.346;2024-03-02T07:36:12;50.3;;;52.2;;
85529;SDS011;75951;48.230;16.346;2024-03-02T07:41:12;46.4;;;48.7;;
85529;SDS011;75951;48.230;16.346;2024-03-02T07:46:11;46.0;;;47.4;;
85529;SDS011;75951;48.230;16.346;2024-03-02T07:51:12;47.2;;;48.7;;
85529;SDS011;75951;48.230;16.346;2024-03-02T07:56:12;47.2;;;48.7;;
85529;SDS011;75951;48.230;16.346;2024-03-02T08:01:11;47.6;;;49.3;;
85529;SDS011;75951;48.230;16.346;2024-03-02T08:06:12;46.2;;;47.7;;
85529;SDS011;75951;48.230;16.346;2024-03-02T08:11:12;44.9;;;46.6;;
85529;SDS011;75951;48.230;16.346;2024-03-02T08:16:12;44.0;;;45.4;;
85529;SDS011;75951;48.230;16.346;2024-03-02T08:21:11;44.9;;;46.2;;
85529;SDS011;75951;48.230;16.346;2024-03-02T08:26:12;45.2;;;47.4;;
85529;SDS011;75951;48.230;16.346;2024-03-02T08:31:11;47.3;;;48.8;;
85529;SDS011;75951;48.230;16.346;2024-03-02T08:36:12;46.2;;;47.8;;
85529;SDS011;75951;48.230;16.346;2024-03-02T08:41:12;45.4;;;46.9;;
85529;SDS011;75951;48.230;16.346;2024-03-02T08:46:12;47.1;;;48.6;;
85529;SDS011;75951;48.230;16.346;2024-03-02T08:51:11;46.5;;;48.1;;
85529;SDS011;75951;48.230;16.346;2024-03-02T08:56:12;48.3;;;49.8;;
85529;SDS011;75951;48.230;16.346;2024-03-02T09:01:12;47.4;;;49.1;;
85529;SDS011;75951;48.230;16.346;2024-03-02T09:06:12;49.6;;;51.0;;
85529;SDS011;75951;48.230;16.346;2024-03-02T09:11:12;50.2;;;52.0;;
85529;SDS011;75951;48.230;16.346;2024-03-02T09:16:11;50.5;;;52.5;;
85529;SDS011;75951;48.230;16.346;2024-03-02T09:21:11;49.9;;;51.6;;
85529;SDS011;75951;48.230;16.346;2024-03-02T09:26:11;53.1;;;54.5;;
85529;SDS011;75951;48.230;16.346;2024-03-02T09:31:11;52.4;;;54.3;;
85529;SDS011;75951;48.230;16.346;2024-03-02T09:36:17;53.3;;;55.9;;
85529;SDS011;75951;48.230;16.346;2024-03-02T09:41:12;53.9;;;56.2;;
85529;SDS011;75951;48.230;16.346;2024-03-02T09:46:11;51.7;;;53.4;;
85529;SDS011;75951;48.230;16.346;2024-03-02T09:51:12;51.1;;;52.7;;
85529;SDS011;75951;48.230;16.346;2024-03-02T09:56:11;55.6;;;57.5;;
85529;SDS011;75951;48.230;16.346;2024-03-02T10:01:11;56.3;;;58.7;;
85529;SDS011;75951;48.230;16.346;2024-03-02T10:11:11;60.7;;;62.7;;
85529;SDS011;75951;48.230;16.346;2024-03-02T10:16:12;55.1;;;57.1;;
85529;SDS011;75951;48.230;16.346;2024-03-02T10:21:13;57.6;;;59.5;;
85529;SDS011;75951;48.230;16.346;2024-03-02T10:26:13;61.3;;;63.8;;
85529;SDS011;75951;48.230;16.346;2024-03-02T10:31:11;60.5;;;62.9;;
85529;SDS011;75951;48.230;16.346;2024-03-02T10:36:11;62.2;;;64.3;;
85529;SDS011;75951;48.230;16.346;2024-03-02T10:41:11;68.6;;;71.5;;
85529;SDS011;75951;48.230;16.346;2024-03-02T10:46:11;63.5;;;66.0;;
85529;SDS011;75951;48.230;16.346;2024-03-02T10:51:11;59.5;;;61.9;;
85529;SDS011;75951;48.230;16.346;2024-03-02T10:56:11;61.3;;;62.8;;
85529;SDS011;75951;48.230;16.346;2024-03-02T11:01:12;62.9;;;66.1;;
85529;SDS011;75951;48.230;16.346;2024-03-02T11:06:11;60.4;;;62.7;;
85529;SDS011;75951;48.230;16.346;2024-03-02T11:11:13;64.1;;;66.6;;
85529;SDS011;75951;48.230;16.346;2024-03-02T11:16:15;61.9;;;64.3;;
85529;SDS011;75951;48.230;16.346;2024-03-02T11:21:11;60.2;;;62.9;;
85529;SDS011;75951;48.230;16.346;2024-03-02T11:31:11;58.2;;;60.5;;
85529;SDS011;75951;48.230;16.346;2024-03-02T11:36:12;56.6;;;59.0;;
85529;SDS011;75951;48.230;16.346;2024-03-02T11:41:11;58.9;;;60.9;;
85529;SDS011;75951;48.230;16.346;2024-03-02T11:46:12;60.7;;;62.7;;
85529;SDS011;75951;48.230;16.346;2024-03-02T11:51:11;59.3;;;61.4;;
85529;SDS011;75951;48.230;16.346;2024-03-02T11:56:12;60.8;;;62.6;;
85529;SDS011;75951;48.230;16.346;2024-03-02T12:01:11;62.3;;;64.3;;
85529;SDS011;75951;48.230;16.346;2024-03-02T12:06:12;63.2;;;65.5;;
85529;SDS011;75951;48.230;16.346;2024-03-02T12:11:13;71.3;;;73.6;;
85529;SDS011;75951;48.230;16.346;2024-03-02T12:16:11;61.2;;;63.1;;
85529;SDS011;75951;48.230;16.346;2024-03-02T12:21:12;63.4;;;65.4;;
85529;SDS011;75951;48.230;16.346;2024-03-02T12:26:11;63.8;;;66.0;;
85529;SDS011;75951;48.230;16.346;2024-03-02T12:31:11;67.9;;;71.1;;
85529;SDS011;75951;48.230;16.346;2024-03-02T12:36:12;62.1;;;64.1;;
85529;SDS011;75951;48.230;16.346;2024-03-02T12:41:11;61.8;;;63.7;;
85529;SDS011;75951;48.230;16.346;2024-03-02T12:46:12;63.0;;;64.9;;
85529;SDS011;75951;48.230;16.346;2024-03-02T12:51:11;58.9;;;60.9;;
85529;SDS011;75951;48.230;16.346;2024-03-02T12:56:11;57.8;;;59.8;;
85529;SDS011;75951;48.230;16.346;2024-03-02T13:01:14;58.8;;;61.3;;
85529;SDS011;75951;48.230;16.346;2024-03-02T13:06:11;58.6;;;61.0;;
85529;SDS011;75951;48.230;16.346;2024-03-02T13:11:11;56.1;;;57.2;;
85529;SDS011;75951;48.230;16.346;2024-03-02T13:16:12;55.4;;;57.3;;
85529;SDS011;75951;48.230;16.346;2024-03-02T13:21:11;60.0;;;62.4;;
85529;SDS011;75951;48.230;16.346;2024-03-02T13:26:11;57.8;;;60.1;;
85529;SDS011;75951;48.230;16.346;2024-03-02T13:31:11;55.5;;;57.2;;
85529;SDS011;75951;48.230;16.346;2024-03-02T13:36:11;57.1;;;59.2;;
85529;SDS011;75951;48.230;16.346;2024-03-02T13:41:11;56.3;;;58.6;;
85529;SDS011;75951;48.230;16.346;2024-03-02T13:46:11;54.2;;;56.5;;
85529;SDS011;75951;48.230;16.346;2024-03-02T13:51:11;53.6;;;55.1;;
85529;SDS011;75951;48.230;16.346;2024-03-02T13:56:11;49.9;;;50.8;;
85529;SDS011;75951;48.230;16.346;2024-03-02T14:01:11;52.7;;;54.9;;
85529;SDS011;75951;48.230;16.346;2024-03-02T14:06:11;51.3;;;53.3;;
85529;SDS011;75951;48.230;16.346;2024-03-02T14:11:11;54.1;;;56.1;;
85529;SDS011;75951;48.230;16.346;2024-03-02T14:16:11;53.6;;;55.3;;
85529;SDS011;75951;48.230;16.346;2024-03-02T14:21:11;51.3;;;53.6;;
85529;SDS011;75951;48.230;16.346;2024-03-02T14:26:11;57.1;;;59.3;;
85529;SDS011;75951;48.230;16.346;2024-03-02T14:31:11;57.4;;;59.6;;
85529;SDS011;75951;48.230;16.346;2024-03-02T14:36:11;56.7;;;58.7;;
85529;SDS011;75951;48.230;16.346;2024-03-02T14:41:11;55.7;;;57.4;;
85529;SDS011;75951;48.230;16.346;2024-03-02T14:46:11;58.2;;;60.5;;
85529;SDS011;75951;48.230;16.346;2024-03-02T14:51:11;56.3;;;58.3;;
85529;SDS011;75951;48.230;16.346;2024-03-02T14:56:11;58.6;;;60.7;;
85529;SDS011;75951;48.230;16.346;2024-03-02T15:01:11;59.2;;;61.4;;
85529;SDS011;75951;48.230;16.346;2024-03-02T15:06:11;60.3;;;62.5;;
85529;SDS011;75951;48.230;16.346;2024-03-02T15:11:11;58.7;;;61.5;;
85529;SDS011;75951;48.230;16.346;2024-03-02T15:16:11;58.7;;;60.8;;
85529;SDS011;75951;48.230;16.346;2024-03-02T15:21:11;56.8;;;59.0;;
85529;SDS011;75951;48.230;16.346;2024-03-02T15:26:11;58.9;;;61.2;;
85529;SDS011;75951;48.230;16.346;2024-03-02T15:31:11;57.1;;;59.1;;
85529;SDS011;75951;48.230;16.346;2024-03-02T15:36:11;58.8;;;61.2;;
85529;SDS011;75951;48.230;16.346;2024-03-02T15:41:11;57.6;;;59.8;;
85529;SDS011;75951;48.230;16.346;2024-03-02T15:46:11;60.5;;;62.7;;
85529;SDS011;75951;48.230;16.346;2024-03-02T15:51:12;58.8;;;60.8;;
85529;SDS011;75951;48.230;16.346;2024-03-02T15:56:11;56.9;;;59.2;;
85529;SDS011;75951;48.230;16.346;2024-03-02T16:01:11;55.2;;;57.1;;
85529;SDS011;75951;48.230;16.346;2024-03-02T16:06:12;56.7;;;58.5;;
85529;SDS011;75951;48.230;16.346;2024-03-02T16:11:11;54.4;;;55.8;;
85529;SDS011;75951;48.230;16.346;2024-03-02T16:16:11;55.6;;;58.0;;
85529;SDS011;75951;48.230;16.346;2024-03-02T16:21:11;56.2;;;58.6;;
85529;SDS011;75951;48.230;16.346;2024-03-02T16:26:11;54.6;;;56.9;;
85529;SDS011;75951;48.230;16.346;2024-03-02T16:31:11;56.0;;;58.2;;
85529;SDS011;75951;48.230;16.346;2024-03-02T16:36:11;54.2;;;55.7;;
85529;SDS011;75951;48.230;16.346;2024-03-02T16:41:11;53.5;;;55.9;;
85529;SDS011;75951;48.230;16.346;2024-03-02T16:46:11;51.8;;;52.8;;
85529;SDS011;75951;48.230;16.346;2024-03-02T16:51:11;50.7;;;52.6;;
85529;SDS011;75951;48.230;16.346;2024-03-02T16:56:12;51.0;;;53.2;;
85529;SDS011;75951;48.230;16.346;2024-03-02T17:01:11;50.7;;;52.3;;
85529;SDS011;75951;48.230;16.346;2024-03-02T17:06:11;51.8;;;53.7;;
85529;SDS011;75951;48.230;16.346;2024-03-02T17:11:11;52.7;;;54.7;;
85529;SDS011;75951;48.230;16.346;2024-03-02T17:16:11;50.0;;;51.0;;
85529;SDS011;75951;48.230;16.346;2024-03-02T17:21:11;50.5;;;52.5;;
85529;SDS011;75951;48.230;16.346;2024-03-02T17:26:11;52.4;;;54.8;;
85529;SDS011;75951;48.230;16.346;2024-03-02T17:31:11;50.1;;;51.8;;
85529;SDS011;75951;48.230;16.346;2024-03-02T17:36:11;53.4;;;55.0;;
85529;SDS011;75951;48.230;16.346;2024-03-02T17:41:11;51.9;;;54.3;;
85529;SDS011;75951;48.230;16.346;2024-03-02T17:46:11;53.0;;;55.0;;
85529;SDS011;75951;48.230;16.346;2024-03-02T17:51:11;52.2;;;54.3;;
85529;SDS011;75951;48.230;16.346;2024-03-02T17:56:11;50.3;;;50.7;;
85529;SDS011;75951;48.230;16.346;2024-03-02T18:01:11;52.0;;;54.2;;
85529;SDS011;75951;48.230;16.346;2024-03-02T18:06:12;52.2;;;54.3;;
85529;SDS011;75951;48.230;16.346;2024-03-02T18:11:15;54.9;;;57.2;;
85529;SDS011;75951;48.230;16.346;2024-03-02T18:16:13;50.5;;;52.8;;
85529;SDS011;75951;48.230;16.346;2024-03-02T18:21:11;52.0;;;54.1;;
85529;SDS011;75951;48.230;16.346;2024-03-02T18:26:11;53.5;;;55.6;;
85529;SDS011;75951;48.230;16.346;2024-03-02T18:31:11;52.1;;;54.2;;
85529;SDS011;75951;48.230;16.346;2024-03-02T18:36:11;52.9;;;54.5;;
85529;SDS011;75951;48.230;16.346;2024-03-02T18:41:11;49.3;;;51.6;;
85529;SDS011;75951;48.230;16.346;2024-03-02T18:46:11;49.5;;;51.2;;
85529;SDS011;75951;48.230;16.346;2024-03-02T18:51:11;49.6;;;51.4;;
85529;SDS011;75951;48.230;16.346;2024-03-02T18:56:11;50.1;;;52.3;;
85529;SDS011;75951;48.230;16.346;2024-03-02T19:01:11;49.7;;;51.5;;
85529;SDS011;75951;48.230;16.346;2024-03-02T19:06:14;48.3;;;50.3;;
85529;SDS011;75951;48.230;16.346;2024-03-02T19:11:14;48.7;;;50.7;;
85529;SDS011;75951;48.230;16.346;2024-03-02T19:16:11;45.1;;;47.3;;
85529;SDS011;75951;48.230;16.346;2024-03-02T19:21:11;42.0;;;43.6;;
85529;SDS011;75951;48.230;16.346;2024-03-02T19:26:11;45.1;;;46.6;;
85529;SDS011;75951;48.230;16.346;2024-03-02T19:31:11;46.1;;;48.3;;
85529;SDS011;75951;48.230;16.346;2024-03-02T19:36:11;46.2;;;47.8;;
85529;SDS011;75951;48.230;16.346;2024-03-02T19:41:11;45.6;;;47.4;;
85529;SDS011;75951;48.230;16.346;2024-03-02T19:46:11;48.4;;;50.4;;
85529;SDS011;75951;48.230;16.346;2024-03-02T19:51:11;45.0;;;46.8;;
85529;SDS011;75951;48.230;16.346;2024-03-02T19:56:16;46.5;;;48.2;;
85529;SDS011;75951;48.230;16.346;2024-03-02T20:01:11;46.9;;;48.7;;
85529;SDS011;75951;48.230;16.346;2024-03-02T20:06:11;45.5;;;47.6;;
85529;SDS011;75951;48.230;16.346;2024-03-02T20:11:11;46.0;;;47.5;;
85529;SDS011;75951;48.230;16.346;2024-03-02T20:16:11;46.8;;;48.6;;
85529;SDS011;75951;48.230;16.346;2024-03-02T20:21:11;47.6;;;49.5;;
85529;SDS011;75951;48.230;16.346;2024-03-02T20:26:11;47.3;;;48.9;;
85529;SDS011;75951;48.230;16.346;2024-03-02T20:31:11;46.6;;;48.5;;
85529;SDS011;75951;48.230;16.346;2024-03-02T20:36:12;46.2;;;48.1;;
85529;SDS011;75951;48.230;16.346;2024-03-02T20:41:14;47.6;;;49.0;;
85529;SDS011;75951;48.230;16.346;2024-03-02T20:46:11;47.5;;;49.4;;
85529;SDS011;75951;48.230;16.346;2024-03-02T20:51:11;48.3;;;50.2;;
85529;SDS011;75951;48.230;16.346;2024-03-02T20:56:11;47.5;;;49.3;;
85529;SDS011;75951;48.230;16.346;2024-03-02T21:01:11;49.0;;;51.0;;
85529;SDS011;75951;48.230;16.346;2024-03-02T21:06:11;49.0;;;50.8;;
85529;SDS011;75951;48.230;16.346;2024-03-02T21:11:12;48.3;;;50.3;;
85529;SDS011;75951;48.230;16.346;2024-03-02T21:16:11;49.2;;;51.1;;
85529;SDS011;75951;48.230;16.346;2024-03-02T21:21:12;49.5;;;51.5;;
85529;SDS011;75951;48.230;16.346;2024-03-02T21:26:11;50.5;;;52.8;;
85529;SDS011;75951;48.230;16.346;2024-03-02T21:31:14;51.3;;;53.1;;
85529;SDS011;75951;48.230;16.346;2024-03-02T21:36:11;52.1;;;54.2;;
85529;SDS011;75951;48.230;16.346;2024-03-02T21:41:11;51.6;;;53.6;;
85529;SDS011;75951;48.230;16.346;2024-03-02T21:46:11;51.5;;;52.9;;
85529;SDS011;75951;48.230;16.346;2024-03-02T21:51:15;53.7;;;55.4;;
85529;SDS011;75951;48.230;16.346;2024-03-02T21:56:11;49.6;;;51.4;;
85529;SDS011;75951;48.230;16.346;2024-03-02T22:01:11;53.7;;;56.1;;
85529;SDS011;75951;48.230;16.346;2024-03-02T22:06:11;54.0;;;56.0;;
85529;SDS011;75951;48.230;16.346;2024-03-02T22:11:11;54.6;;;56.4;;
85529;SDS011;75951;48.230;16.346;2024-03-02T22:16:11;55.9;;;58.0;;
85529;SDS011;75951;48.230;16.346;2024-03-02T22:21:11;59.2;;;61.3;;
85529;SDS011;75951;48.230;16.346;2024-03-02T22:26:11;59.3;;;61.8;;
85529;SDS011;75951;48.230;16.346;2024-03-02T22:31:11;59.9;;;61.9;;
85529;SDS011;75951;48.230;16.346;2024-03-02T22:36:11;60.0;;;62.6;;
85529;SDS011;75951;48.230;16.346;2024-03-02T22:41:11;57.0;;;59.2;;
85529;SDS011;75951;48.230;16.346;2024-03-02T22:46:12;58.3;;;60.2;;
85529;SDS011;75951;48.230;16.346;2024-03-02T22:51:11;58.6;;;60.3;;
85529;SDS011;75951;48.230;16.346;2024-03-02T22:56:11;58.1;;;60.4;;
85529;SDS011;75951;48.230;16.346;2024-03-02T23:01:11;59.7;;;62.7;;
85529;SDS011;75951;48.230;16.346;2024-03-02T23:06:11;60.5;;;63.1;;
85529;SDS011;75951;48.230;16.346;2024-03-02T23:11:11;58.3;;;60.6;;
85529;SDS011;75951;48.230;16.346;2024-03-02T23:16:11;58.7;;;61.2;;
85529;SDS011;75951;48.230;16.346;2024-03-02T23:21:11;57.3;;;58.8;;
85529;SDS011;75951;48.230;16.346;2024-03-02T23:26:11;59.8;;;62.7;;
85529;SDS011;75951;48.230;16.346;2024-03-02T23:31:11;59.1;;;61.3;;
85529;SDS011;75951;48.230;16.346;2024-03-02T23:36:11;60.8;;;63.7;;
85529;SDS011;75951;48.230;16.346;2024-03-02T23:41:11;59.2;;;61.7;;
85529;SDS011;75951;48.230;16.346;2024-03-02T23:46:11;59.4;;;61.7;;
85529;SDS011;75951;48.230;16.346;2024-03-02T23:51:11;58.3;;;60.5;;
85529;SDS011;75951;48.230;16.346;2024-03-02T23:56:12;59.9;;;63.1;;
